createdAt,value
2023-01-09T00:00:33.901Z,99104.75
2023-01-09T00:05:57.545Z,99101.65
2023-01-09T00:11:01.447Z,99094.58
2023-01-09T00:16:06.465Z,99088.67
2023-01-09T00:21:11.593Z,99094.39
2023-01-09T00:26:19.586Z,99095.44
2023-01-09T00:31:25.538Z,99094.93
2023-01-09T00:36:32.161Z,99098.78
2023-01-09T00:41:44.833Z,99092.67
2023-01-09T00:46:56.525Z,99097.75
2023-01-09T00:52:00.888Z,99086.49
2023-01-09T00:57:04.704Z,99084.68
2023-01-09T01:02:09.270Z,99082.87
2023-01-09T01:07:31.834Z,99087.80
2023-01-09T01:12:35.409Z,99085.78
2023-01-09T01:17:40.939Z,99085.02
2023-01-09T01:22:48.221Z,99086.34
2023-01-09T01:27:52.043Z,99079.35
2023-01-09T01:32:56.764Z,99082.77
2023-01-09T01:38:01.434Z,99083.02
2023-01-09T01:43:05.134Z,99076.90
2023-01-09T01:48:16.199Z,99070.09
2023-01-09T01:53:37.505Z,99062.66
2023-01-09T01:58:48.622Z,99053.23
2023-01-09T02:03:55.712Z,99038.02
2023-01-09T02:09:02.496Z,99022.94
2023-01-09T02:14:06.697Z,99013.49
2023-01-09T02:19:24.975Z,99005.84
2023-01-09T02:24:56.975Z,99003.25
2023-01-09T02:30:29.998Z,98991.31
2023-01-09T02:35:41.361Z,98980.94
2023-01-09T02:40:54.252Z,98973.09
2023-01-09T02:45:58.691Z,98962.03
2023-01-09T02:51:25.690Z,98946.37
2023-01-09T02:56:52.822Z,98934.41
2023-01-09T03:02:47.213Z,98927.75
2023-01-09T03:07:58.651Z,98929.44
2023-01-09T03:13:04.238Z,98928.73
2023-01-09T03:18:09.580Z,98926.08
2023-01-09T03:23:16.243Z,98924.33
2023-01-09T03:28:27.467Z,98929.21
2023-01-09T03:33:31.298Z,98926.75
2023-01-09T03:38:35.664Z,98914.48
2023-01-09T03:43:39.539Z,98907.83
2023-01-09T03:48:46.270Z,98903.24
2023-01-09T03:53:50.077Z,98901.74
2023-01-09T03:58:54.054Z,98890.67
2023-01-09T04:04:00.227Z,98878.84
2023-01-09T04:09:03.971Z,98871.05
2023-01-09T04:14:08.197Z,98857.84
2023-01-09T04:19:12.048Z,98855.95
2023-01-09T04:24:15.685Z,98856.17
2023-01-09T04:29:20.290Z,98853.38
2023-01-09T04:34:25.992Z,98855.34
2023-01-09T04:39:29.802Z,98855.21
2023-01-09T04:44:33.471Z,98843.34
2023-01-09T04:49:37.758Z,98837.75
2023-01-09T04:54:41.418Z,98827.67
2023-01-09T04:59:45.147Z,98821.33
2023-01-09T05:04:48.816Z,98815.04
2023-01-09T05:09:52.625Z,98815.68
2023-01-09T05:14:58.293Z,98821.06
2023-01-09T05:20:02.057Z,98818.30
2023-01-09T05:25:07.649Z,98815.94
2023-01-09T05:30:13.949Z,98807.98
2023-01-09T05:35:17.971Z,98806.79
2023-01-09T05:40:24.823Z,98793.25
2023-01-09T05:45:32.640Z,98794.09
2023-01-09T05:50:37.892Z,98798.34
2023-01-09T05:55:42.070Z,98781.98
2023-01-09T06:00:45.989Z,98775.29
2023-01-09T06:05:49.894Z,98768.91
2023-01-09T06:10:53.652Z,98766.61
2023-01-09T06:16:00.289Z,98761.34
2023-01-09T06:21:05.009Z,98766.48
2023-01-09T06:26:09.323Z,98766.80
2023-01-09T06:31:13.911Z,98771.48
2023-01-09T06:36:17.858Z,98762.04
2023-01-09T06:41:21.725Z,98753.73
2023-01-09T06:46:25.573Z,98756.72
2023-01-09T06:51:29.572Z,98762.89
2023-01-09T06:56:34.523Z,98770.83
2023-01-09T07:01:40.223Z,98763.94
2023-01-09T07:06:44.549Z,98751.86
2023-01-09T07:11:49.066Z,98738.96
2023-01-09T07:16:52.845Z,98736.41
2023-01-09T07:21:56.833Z,98731.54
2023-01-09T07:27:00.476Z,98743.20
2023-01-09T07:32:04.967Z,98751.66
2023-01-09T07:37:11.428Z,98753.99
2023-01-09T07:42:18.131Z,98750.95
2023-01-09T07:47:21.912Z,98745.77
2023-01-09T07:52:26.336Z,98747.12
2023-01-09T07:57:33.433Z,98739.64
2023-01-09T08:02:37.580Z,98738.54
2023-01-09T08:07:45.090Z,98731.34
2023-01-09T08:12:49.860Z,98728.36
2023-01-09T08:17:53.751Z,98730.38
2023-01-09T08:22:57.621Z,98732.10
2023-01-09T08:28:01.647Z,98730.68
2023-01-09T08:33:05.883Z,98725.61
2023-01-09T08:38:10.959Z,98727.81
2023-01-09T08:43:33.983Z,98732.77
2023-01-09T08:48:37.635Z,98731.61
2023-01-09T08:53:41.278Z,98727.48
2023-01-09T08:58:45.437Z,98719.00
2023-01-09T09:03:49.153Z,98713.59
2023-01-09T09:08:52.807Z,98713.67
2023-01-09T09:13:58.110Z,98714.45
2023-01-09T09:19:01.865Z,98715.91
2023-01-09T09:24:05.747Z,98717.66
2023-01-09T09:29:09.783Z,98717.21
2023-01-09T09:34:13.789Z,98723.23
2023-01-09T09:39:17.622Z,98727.05
2023-01-09T09:44:58.838Z,98732.48
2023-01-09T09:50:48.149Z,98733.01
2023-01-09T09:55:52.282Z,98726.77
2023-01-09T10:00:56.816Z,98728.88
2023-01-09T10:06:01.373Z,98728.75
2023-01-09T10:11:05.676Z,98720.20
2023-01-09T10:16:26.984Z,98715.34
2023-01-09T10:22:19.155Z,98725.89
2023-01-09T10:27:45.723Z,98719.43
2023-01-09T10:33:10.028Z,98719.98
2023-01-09T10:38:19.882Z,98721.34
2023-01-09T10:43:57.969Z,98716.70
2023-01-09T10:49:06.074Z,98715.85
2023-01-09T10:54:22.637Z,98707.14
2023-01-09T10:59:42.590Z,98699.41
2023-01-09T11:04:45.039Z,98705.61
2023-01-09T11:10:12.199Z,98702.99
2023-01-09T11:15:27.560Z,98703.21
2023-01-09T11:20:31.414Z,98700.27
2023-01-09T11:25:40.949Z,98697.73
2023-01-09T11:31:00.961Z,98697.73
2023-01-09T11:36:25.647Z,98686.22
2023-01-09T11:41:34.822Z,98688.09
2023-01-09T11:46:42.789Z,98686.69
2023-01-09T11:51:46.760Z,98694.61
2023-01-09T11:56:51.510Z,98689.58
2023-01-09T12:02:22.490Z,98687.90
2023-01-09T12:08:07.166Z,98694.89
2023-01-09T12:13:26.495Z,98698.83
2023-01-09T12:19:01.260Z,98704.80
2023-01-09T12:24:39.879Z,98703.96
2023-01-09T12:30:01.942Z,98704.34
2023-01-09T12:35:42.302Z,98709.84
2023-01-09T12:41:15.111Z,98705.63
2023-01-09T12:46:20.646Z,98712.77
2023-01-09T12:51:50.657Z,98719.65
2023-01-09T12:57:39.215Z,98728.28
2023-01-09T13:02:47.555Z,98730.80
2023-01-09T13:08:16.327Z,98732.65
2023-01-09T13:13:35.031Z,98741.53
2023-01-09T13:19:07.127Z,98750.66
2023-01-09T13:24:34.230Z,98758.63
2023-01-09T13:29:47.805Z,98760.33
2023-01-09T13:34:54.244Z,98762.16
2023-01-09T13:40:04.724Z,98769.59
2023-01-09T13:45:28.695Z,98773.52
2023-01-09T13:50:32.427Z,98776.45
2023-01-09T13:55:36.532Z,98779.79
2023-01-09T14:01:19.226Z,98795.96
2023-01-09T14:06:27.533Z,98819.48
2023-01-09T14:11:31.319Z,98829.67
2023-01-09T14:16:36.307Z,98838.52
2023-01-09T14:21:45.569Z,98845.39
2023-01-09T14:26:56.303Z,98859.12
2023-01-09T14:32:43.233Z,98864.23
2023-01-09T14:37:56.413Z,98878.55
2023-01-09T14:43:12.717Z,98890.92
2023-01-09T14:48:17.272Z,98894.69
2023-01-09T14:53:30.379Z,98904.21
2023-01-09T14:58:37.609Z,98914.06
2023-01-09T15:03:44.754Z,98916.80
2023-01-09T15:09:02.075Z,98914.33
2023-01-09T15:14:06.810Z,98928.27
2023-01-09T15:19:13.397Z,98940.39
2023-01-09T15:24:30.753Z,98942.15
2023-01-09T15:29:34.776Z,98941.02
2023-01-09T15:34:39.995Z,98955.90
2023-01-09T15:39:43.743Z,98969.39
2023-01-09T15:44:50.037Z,98972.41
2023-01-09T15:49:55.475Z,98969.08
2023-01-09T15:54:59.170Z,98960.92
2023-01-09T16:00:42.975Z,98954.94
2023-01-09T16:06:06.235Z,98953.52
2023-01-09T16:11:19.832Z,98954.31
2023-01-09T16:16:29.945Z,98965.62
2023-01-09T16:21:37.236Z,98973.70
2023-01-09T16:26:40.951Z,98985.11
2023-01-09T16:31:44.934Z,98994.17
2023-01-09T16:36:49.153Z,98993.30
2023-01-09T16:42:11.903Z,99006.05
2023-01-09T16:47:15.522Z,99019.13
2023-01-09T16:52:19.170Z,99032.31
2023-01-09T16:57:22.860Z,99034.60
2023-01-09T17:02:27.009Z,99043.04
2023-01-09T17:07:31.623Z,99064.77
2023-01-09T17:12:35.483Z,99073.86
2023-01-09T17:17:39.243Z,99071.96
2023-01-09T17:22:43.753Z,99077.75
2023-01-09T17:28:06.080Z,99081.59
2023-01-09T17:33:20.057Z,99091.48
2023-01-09T17:38:23.961Z,99106.84
2023-01-09T17:43:27.637Z,99114.46
2023-01-09T17:48:32.624Z,99113.77
2023-01-09T17:53:36.781Z,99118.54
2023-01-09T17:58:40.832Z,99116.05
2023-01-09T18:03:47.392Z,99116.04
2023-01-09T18:08:51.243Z,99119.33
2023-01-09T18:13:55.103Z,99115.58
2023-01-09T18:18:59.848Z,99124.47
2023-01-09T18:24:04.597Z,99124.73
2023-01-09T18:29:09.773Z,99127.38
2023-01-09T18:34:14.330Z,99140.48
2023-01-09T18:39:19.133Z,99142.70
2023-01-09T18:44:25.063Z,99141.45
2023-01-09T18:49:30.940Z,99141.53
2023-01-09T18:54:35.527Z,99153.30
2023-01-09T18:59:40.082Z,99152.70
2023-01-09T19:04:45.895Z,99150.48
2023-01-09T19:09:50.980Z,99152.98
2023-01-09T19:14:56.865Z,99159.07
2023-01-09T19:20:00.884Z,99163.80
2023-01-09T19:25:06.025Z,99180.73
2023-01-09T19:30:11.610Z,99191.17
2023-01-09T19:35:20.826Z,99200.17
2023-01-09T19:40:28.859Z,99207.29
2023-01-09T19:45:53.868Z,99212.04
2023-01-09T19:51:07.741Z,99208.98
2023-01-09T19:56:19.704Z,99221.83
2023-01-09T20:01:35.925Z,99232.45
2023-01-09T20:06:48.721Z,99239.60
2023-01-09T20:11:55.730Z,99247.20
2023-01-09T20:17:07.361Z,99244.61
2023-01-09T20:22:12.965Z,99242.31
2023-01-09T20:27:34.776Z,99245.60
2023-01-09T20:32:51.207Z,99256.36
2023-01-09T20:37:55.329Z,99267.02
2023-01-09T20:43:00.379Z,99276.79
2023-01-09T20:48:05.690Z,99288.50
2023-01-09T20:53:10.731Z,99291.92
2023-01-09T20:58:15.389Z,99292.84
2023-01-09T21:03:20.020Z,99291.95
2023-01-09T21:08:24.519Z,99294.55
2023-01-09T21:13:28.853Z,99289.21
2023-01-09T21:18:33.520Z,99298.59
2023-01-09T21:23:39.432Z,99298.91
2023-01-09T21:28:50.285Z,99305.92
2023-01-09T21:33:54.885Z,99321.21
2023-01-09T21:38:59.460Z,99328.02
2023-01-09T21:44:42.291Z,99338.23
2023-01-09T21:50:13.032Z,99356.83
2023-01-09T21:55:17.090Z,99363.25
2023-01-09T22:00:22.966Z,99369.70
2023-01-09T22:05:27.493Z,99377.08
2023-01-09T22:10:31.355Z,99379.20
2023-01-09T22:15:35.540Z,99380.33
2023-01-09T22:20:39.351Z,99387.98
2023-01-09T22:25:43.123Z,99395.58
2023-01-09T22:30:47.260Z,99401.75
2023-01-09T22:35:51.298Z,99405.99
2023-01-09T22:40:54.908Z,99412.57
2023-01-09T22:46:09.085Z,99413.79
2023-01-09T22:51:17.231Z,99413.89
2023-01-09T22:56:22.992Z,99417.02
2023-01-09T23:01:28.035Z,99422.13
2023-01-09T23:06:34.459Z,99426.73
2023-01-09T23:11:57.061Z,99430.88
2023-01-09T23:17:00.898Z,99433.52
2023-01-09T23:22:05.544Z,99437.33
2023-01-09T23:27:09.656Z,99441.64
2023-01-09T23:32:14.464Z,99446.51
2023-01-09T23:37:18.413Z,99451.39
2023-01-09T23:42:41.003Z,99453.61
2023-01-09T23:47:44.770Z,99450.58
2023-01-09T23:52:48.899Z,99456.46
2023-01-09T23:57:56.125Z,99464.46
